createdAt,value
2022-12-17T00:00:35.345Z,23.48
2022-12-17T00:07:34.668Z,32.75
2022-12-17T00:14:32.554Z,27.67
2022-12-17T00:21:33.011Z,26.92
2022-12-17T00:28:30.912Z,25.92
2022-12-17T00:35:29.145Z,23.45
2022-12-17T00:42:29.609Z,24.33
2022-12-17T00:49:27.489Z,25.15
2022-12-17T00:56:25.356Z,23.02
2022-12-17T01:03:28.624Z,22.27
2022-12-17T01:10:26.514Z,23.13
2022-12-17T01:17:24.406Z,23.42
2022-12-17T01:24:25.472Z,25.08
2022-12-17T01:31:23.560Z,23.52
2022-12-17T01:38:27.738Z,23.25
2022-12-17T01:45:30.550Z,22.45
2022-12-17T01:52:31.795Z,21.55
2022-12-17T01:59:46.144Z,22.42
2022-12-17T02:06:51.005Z,21.55
2022-12-17T02:13:56.932Z,22.50
2022-12-17T02:20:59.182Z,22.00
2022-12-17T02:28:00.035Z,22.70
2022-12-17T02:35:02.368Z,21.27
2022-12-17T02:42:06.644Z,21.65
2022-12-17T02:49:08.001Z,21.40
2022-12-17T02:56:06.034Z,21.83
2022-12-17T03:03:07.947Z,21.63
2022-12-17T03:10:08.528Z,19.73
2022-12-17T03:17:11.682Z,20.27
2022-12-17T03:24:09.689Z,21.03
2022-12-17T03:31:12.239Z,21.40
2022-12-17T03:38:10.081Z,20.87
2022-12-17T04:05:25.983Z,21.17
2022-12-17T04:12:23.826Z,20.60
2022-12-17T04:19:21.738Z,20.23
2022-12-17T04:26:22.200Z,20.33
2022-12-17T04:33:20.379Z,18.97
2022-12-17T04:40:18.526Z,19.00
2022-12-17T04:47:19.111Z,19.90
2022-12-17T04:54:17.338Z,20.50
2022-12-17T05:01:15.638Z,19.90
2022-12-17T05:08:16.275Z,19.27
2022-12-17T05:15:14.160Z,18.23
2022-12-17T05:22:12.065Z,18.03
2022-12-17T05:29:15.809Z,18.63
2022-12-17T05:36:20.434Z,18.37
2022-12-17T05:43:24.554Z,18.30
2022-12-17T05:50:25.247Z,19.60
2022-12-17T05:57:25.644Z,19.07
2022-12-17T06:04:25.572Z,18.80
2022-12-17T06:11:26.037Z,18.67
2022-12-17T06:18:24.995Z,18.67
2022-12-17T06:25:23.861Z,17.80
2022-12-17T06:32:24.478Z,20.33
2022-12-17T06:39:22.586Z,17.37
2022-12-17T06:46:20.779Z,17.93
2022-12-17T06:53:23.468Z,18.43
2022-12-17T07:00:24.280Z,18.63
2022-12-17T07:07:22.563Z,18.70
2022-12-17T07:14:23.015Z,20.13
2022-12-17T07:21:21.205Z,19.40
2022-12-17T07:28:19.730Z,19.50
2022-12-17T07:35:21.671Z,22.40
2022-12-17T07:42:20.203Z,23.80
2022-12-17T07:49:24.001Z,23.87
2022-12-17T07:56:26.143Z,26.03
2022-12-17T08:03:24.015Z,26.70
2022-12-17T08:10:23.432Z,28.10
2022-12-17T08:17:23.878Z,27.93
2022-12-17T08:24:22.418Z,24.97
2022-12-17T08:31:20.686Z,24.57
2022-12-17T08:38:22.672Z,25.90
2022-12-17T08:45:22.189Z,26.73
2022-12-17T08:52:20.483Z,27.77
2022-12-17T08:59:20.969Z,29.93
2022-12-17T09:06:18.982Z,30.20
2022-12-17T09:13:18.259Z,27.90
2022-12-17T09:20:19.165Z,26.67
2022-12-17T09:27:17.286Z,24.23
2022-12-17T09:34:15.598Z,26.07
2022-12-17T09:41:29.452Z,25.27
2022-12-17T09:48:39.691Z,24.17
2022-12-17T09:55:44.355Z,25.70
2022-12-17T10:02:47.573Z,26.00
2022-12-17T10:09:47.471Z,25.97
2022-12-17T10:16:49.866Z,27.70
2022-12-17T10:23:50.615Z,28.27
2022-12-17T10:30:49.012Z,28.27
2022-12-17T10:37:49.603Z,26.60
2022-12-17T10:44:52.111Z,26.40
2022-12-17T10:51:52.532Z,27.07
2022-12-17T10:58:51.192Z,27.17
2022-12-17T11:05:56.305Z,26.87
2022-12-17T11:13:02.000Z,27.03
2022-12-17T11:20:07.745Z,27.10
2022-12-17T11:27:12.407Z,25.60
2022-12-17T11:34:20.594Z,27.23
2022-12-17T11:41:29.196Z,27.00
2022-12-17T11:48:39.667Z,25.45
2022-12-17T11:55:49.859Z,28.17
2022-12-17T12:03:06.092Z,26.45
2022-12-17T12:10:14.627Z,27.23
2022-12-17T12:17:43.909Z,28.43
2022-12-17T12:25:06.752Z,29.67
2022-12-17T12:32:15.905Z,28.80
2022-12-17T12:39:17.824Z,28.08
2022-12-17T12:46:22.811Z,31.40
2022-12-17T12:53:20.861Z,31.15
2022-12-17T13:00:19.200Z,29.38
2022-12-17T13:07:08.165Z,31.73
2022-12-17T13:13:58.532Z,26.83
2022-12-17T13:20:44.196Z,32.15
2022-12-17T13:27:43.021Z,29.90
2022-12-17T13:34:37.239Z,30.45
2022-12-17T13:41:24.760Z,31.10
2022-12-17T13:48:25.179Z,30.67
2022-12-17T13:55:14.050Z,31.98
2022-12-17T14:01:59.534Z,30.75
2022-12-17T14:08:49.739Z,32.72
2022-12-17T14:15:36.750Z,32.10
2022-12-17T14:22:34.668Z,29.90
2022-12-17T14:29:28.957Z,37.13
2022-12-17T14:36:23.912Z,33.38
2022-12-17T14:43:09.560Z,33.78
2022-12-17T14:50:07.581Z,31.55
2022-12-17T14:56:54.541Z,34.53
2022-12-17T15:03:44.289Z,33.67
2022-12-17T15:10:32.442Z,34.60
2022-12-17T15:17:18.734Z,33.42
2022-12-17T15:24:04.780Z,32.85
2022-12-17T15:30:54.594Z,37.47
2022-12-17T15:37:40.050Z,33.38
2022-12-17T15:44:25.808Z,33.43
2022-12-17T15:51:19.360Z,33.20
2022-12-17T15:58:05.421Z,34.28
2022-12-17T16:04:50.817Z,34.15
2022-12-17T16:11:38.797Z,35.28
2022-12-17T16:18:24.184Z,34.92
2022-12-17T16:25:11.016Z,35.47
2022-12-17T16:38:48.090Z,35.88
2022-12-17T16:45:33.427Z,34.05
2022-12-17T16:52:21.413Z,33.60
2022-12-17T16:59:09.932Z,32.08
2022-12-17T17:05:55.295Z,33.63
2022-12-17T17:12:43.296Z,31.80
2022-12-17T17:19:29.003Z,33.60
2022-12-17T17:26:14.862Z,35.90
2022-12-17T17:33:02.857Z,40.03
2022-12-17T17:39:48.927Z,44.40
2022-12-17T17:46:35.640Z,38.67
2022-12-17T17:53:23.598Z,31.55
2022-12-17T18:00:16.769Z,33.30
2022-12-17T18:07:24.825Z,33.03
2022-12-17T18:14:13.084Z,32.13
2022-12-17T18:21:06.972Z,31.23
2022-12-17T18:27:55.347Z,30.20
2022-12-17T18:34:43.915Z,32.38
2022-12-17T18:41:42.505Z,34.30
2022-12-17T18:48:27.883Z,32.73
2022-12-17T18:55:19.342Z,34.55
2022-12-17T19:02:04.830Z,34.17
2022-12-17T19:08:50.796Z,34.47
2022-12-17T19:15:38.956Z,33.33
2022-12-17T19:22:24.402Z,34.10
2022-12-17T19:29:10.731Z,33.20
2022-12-17T19:49:40.048Z,35.80
2022-12-17T19:56:30.350Z,35.03
2022-12-17T20:03:16.116Z,38.58
2022-12-17T20:10:01.860Z,40.75
2022-12-17T20:16:52.534Z,38.47
2022-12-17T20:23:38.299Z,36.53
2022-12-17T20:30:27.794Z,36.60
2022-12-17T20:37:15.815Z,37.67
2022-12-17T20:44:09.033Z,37.27
2022-12-17T20:50:57.196Z,37.50
2022-12-17T20:57:48.881Z,41.63
2022-12-17T21:04:36.937Z,37.07
2022-12-17T21:11:28.638Z,35.27
2022-12-17T21:18:16.794Z,36.28
2022-12-17T21:25:03.457Z,33.30
2022-12-17T21:31:50.977Z,33.90
2022-12-17T21:38:39.503Z,29.50
2022-12-17T21:45:25.857Z,33.60
2022-12-17T21:52:11.485Z,34.33
2022-12-17T21:59:04.043Z,35.90
2022-12-17T22:05:49.823Z,33.23
2022-12-17T22:12:47.873Z,35.20
2022-12-17T22:19:37.055Z,32.40
2022-12-17T22:26:23.846Z,31.00
2022-12-17T22:33:40.157Z,30.77
2022-12-17T22:44:32.293Z,30.38
2022-12-17T22:47:25.574Z,30.40
2022-12-17T22:54:16.487Z,29.37
2022-12-17T23:01:05.606Z,30.80
2022-12-17T23:07:51.027Z,32.63
2022-12-17T23:14:36.408Z,32.13
2022-12-17T23:21:28.250Z,30.00
2022-12-17T23:28:13.671Z,30.27
2022-12-17T23:34:59.043Z,30.37
2022-12-17T23:41:47.042Z,32.63
2022-12-17T23:48:34.383Z,29.67
2022-12-17T23:55:20.154Z,29.70
